createdAt,value
2018-11-28T00:01:33.223Z,5.60
2018-11-28T00:03:59.262Z,5.60
2018-11-28T00:06:25.251Z,5.50
2018-11-28T00:08:51.271Z,5.50
2018-11-28T00:11:18.020Z,5.50
2018-11-28T00:13:44.754Z,5.60
2018-11-28T00:16:11.519Z,5.20
2018-11-28T00:18:37.526Z,5.10
2018-11-28T00:21:03.548Z,4.70
2018-11-28T00:23:30.289Z,4.80
2018-11-28T00:25:58.946Z,4.70
2018-11-28T00:28:23.067Z,4.70
2018-11-28T00:30:49.075Z,4.70
2018-11-28T00:33:15.823Z,4.90
2018-11-28T00:35:42.607Z,5.10
2018-11-28T00:38:08.632Z,5.10
2018-11-28T00:40:34.637Z,5.20
2018-11-28T00:43:00.620Z,5.30
2018-11-28T00:45:27.411Z,5.20
2018-11-28T00:47:53.416Z,5.30
2018-11-28T00:50:19.414Z,5.30
2018-11-28T00:52:52.549Z,5.40
2018-11-28T00:55:18.546Z,5.50
2018-11-28T00:57:44.550Z,5.50
2018-11-28T01:00:11.347Z,5.60
2018-11-28T01:02:37.373Z,5.60
2018-11-28T01:05:03.378Z,5.60
2018-11-28T01:07:29.382Z,5.60
2018-11-28T01:09:56.121Z,5.60
2018-11-28T01:12:22.160Z,5.60
2018-11-28T01:14:48.189Z,5.60
2018-11-28T01:17:14.195Z,5.60
2018-11-28T01:19:40.223Z,5.50
2018-11-28T01:22:06.980Z,5.00
2018-11-28T01:24:32.982Z,5.00
2018-11-28T01:26:59.736Z,4.80
2018-11-28T01:29:25.754Z,4.80
2018-11-28T01:31:51.765Z,4.70
2018-11-28T01:34:18.502Z,4.80
2018-11-28T01:36:44.527Z,4.80
2018-11-28T01:39:11.247Z,4.10
2018-11-28T01:41:37.247Z,4.10
2018-11-28T01:44:03.281Z,3.90
2018-11-28T01:46:29.291Z,4.10
2018-11-28T01:48:55.322Z,4.20
2018-11-28T01:51:21.315Z,4.20
2018-11-28T01:53:47.323Z,4.30
2018-11-28T01:56:13.353Z,4.30
2018-11-28T01:58:46.473Z,4.50
2018-11-28T02:01:12.543Z,4.30
2018-11-28T02:03:38.586Z,4.40
2018-11-28T02:06:04.610Z,4.40
2018-11-28T02:08:30.654Z,4.30
2018-11-28T02:10:56.732Z,4.30
2018-11-28T02:13:23.503Z,3.90
2018-11-28T02:15:49.508Z,3.90
2018-11-28T02:18:15.565Z,3.90
2018-11-28T02:20:41.576Z,3.90
2018-11-28T02:23:07.591Z,3.90
2018-11-28T02:25:33.611Z,3.90
2018-11-28T02:28:00.364Z,3.90
2018-11-28T02:30:26.397Z,3.90
2018-11-28T02:32:52.409Z,3.80
2018-11-28T02:35:18.478Z,3.80
2018-11-28T02:37:44.498Z,3.80
2018-11-28T02:40:10.500Z,3.70
2018-11-28T02:42:36.503Z,3.40
2018-11-28T02:45:03.258Z,2.90
2018-11-28T02:47:29.327Z,2.90
2018-11-28T02:49:55.322Z,2.60
2018-11-28T02:52:21.349Z,2.50
2018-11-28T02:54:47.349Z,2.30
2018-11-28T02:57:13.366Z,2.10
2018-11-28T02:59:39.377Z,2.00
2018-11-28T03:02:06.137Z,2.20
2018-11-28T03:04:32.229Z,2.20
2018-11-28T03:06:58.246Z,2.50
2018-11-28T03:09:24.255Z,2.60
2018-11-28T03:11:50.261Z,2.90
2018-11-28T03:14:16.307Z,3.00
2018-11-28T03:16:42.309Z,3.10
2018-11-28T03:19:08.303Z,3.10
2018-11-28T03:21:34.331Z,3.00
2018-11-28T03:24:00.365Z,3.00
2018-11-28T03:26:26.377Z,3.00
2018-11-28T03:28:52.401Z,3.10
2018-11-28T03:31:18.388Z,3.10
2018-11-28T03:33:44.396Z,3.20
2018-11-28T03:36:10.427Z,3.30
2018-11-28T03:38:36.431Z,3.30
2018-11-28T03:41:02.437Z,3.20
2018-11-28T03:43:28.427Z,3.10
2018-11-28T03:45:54.460Z,3.20
2018-11-28T03:48:20.473Z,3.10
2018-11-28T03:50:46.482Z,3.10
2018-11-28T03:53:13.234Z,3.10
2018-11-28T03:55:39.990Z,3.10
2018-11-28T03:58:06.003Z,3.10
2018-11-28T04:00:32.027Z,3.00
2018-11-28T04:02:58.775Z,3.10
2018-11-28T04:05:24.768Z,3.00
2018-11-28T04:07:50.808Z,3.00
2018-11-28T04:10:17.530Z,3.00
2018-11-28T04:12:43.554Z,3.00
2018-11-28T04:15:09.536Z,3.00
2018-11-28T04:17:35.538Z,2.90
2018-11-28T04:20:01.600Z,3.00
2018-11-28T04:22:27.579Z,3.00
2018-11-28T04:24:53.582Z,2.90
2018-11-28T04:27:19.597Z,3.00
2018-11-28T04:29:45.598Z,3.00
2018-11-28T04:32:11.630Z,3.00
2018-11-28T04:34:37.646Z,2.90
2018-11-28T04:37:03.694Z,2.90
2018-11-28T04:39:29.726Z,2.90
2018-11-28T04:41:55.705Z,2.90
2018-11-28T04:44:21.706Z,2.90
2018-11-28T04:46:47.718Z,2.90
2018-11-28T04:49:13.714Z,2.90
2018-11-28T04:51:39.719Z,2.90
2018-11-28T04:54:05.707Z,2.90
2018-11-28T04:56:31.711Z,2.90
2018-11-28T04:58:57.711Z,3.00
2018-11-28T05:01:23.708Z,3.00
2018-11-28T05:03:49.682Z,3.00
2018-11-28T05:06:16.424Z,2.70
2018-11-28T05:08:42.434Z,2.80
2018-11-28T05:11:09.206Z,2.80
2018-11-28T05:13:35.288Z,2.80
2018-11-28T05:16:01.283Z,2.90
2018-11-28T05:18:27.381Z,2.70
2018-11-28T05:20:53.341Z,2.50
2018-11-28T05:23:19.341Z,2.10
2018-11-28T05:25:45.334Z,1.90
2018-11-28T05:28:11.357Z,1.70
2018-11-28T05:30:37.343Z,1.70
2018-11-28T05:33:03.338Z,1.70
2018-11-28T05:35:29.325Z,1.60
2018-11-28T05:37:55.349Z,1.50
2018-11-28T05:40:21.342Z,1.60
2018-11-28T05:42:47.345Z,1.70
2018-11-28T05:45:13.407Z,1.70
2018-11-28T05:47:39.399Z,1.50
2018-11-28T05:50:05.374Z,1.30
2018-11-28T05:52:31.378Z,1.70
2018-11-28T05:55:07.357Z,1.80
2018-11-28T05:57:33.355Z,2.00
2018-11-28T06:00:00.086Z,2.20
2018-11-28T06:02:26.853Z,2.30
2018-11-28T06:04:52.842Z,2.30
2018-11-28T06:07:18.845Z,2.30
2018-11-28T06:09:44.851Z,2.40
2018-11-28T06:12:10.842Z,2.40
2018-11-28T06:14:37.630Z,2.50
2018-11-28T06:17:03.618Z,2.50
2018-11-28T06:19:29.656Z,2.50
2018-11-28T06:21:55.684Z,2.50
2018-11-28T06:24:21.783Z,2.60
2018-11-28T06:26:47.835Z,2.70
2018-11-28T06:29:13.862Z,2.60
2018-11-28T06:31:39.864Z,2.50
2018-11-28T06:34:05.887Z,2.50
2018-11-28T06:36:31.891Z,2.40
2018-11-28T06:38:58.628Z,2.50
2018-11-28T06:41:25.355Z,2.60
2018-11-28T06:43:51.344Z,2.60
2018-11-28T06:46:17.370Z,2.80
2018-11-28T06:48:43.375Z,2.90
2018-11-28T06:51:09.382Z,3.00
2018-11-28T06:53:35.365Z,3.00
2018-11-28T06:56:01.377Z,3.10
2018-11-28T06:58:27.405Z,3.20
2018-11-28T07:00:53.392Z,3.20
2018-11-28T07:03:19.417Z,3.30
2018-11-28T07:05:45.442Z,3.40
2018-11-28T07:08:11.452Z,3.40
2018-11-28T07:10:37.457Z,3.40
2018-11-28T07:13:03.466Z,3.40
2018-11-28T07:15:30.219Z,3.20
2018-11-28T07:17:56.242Z,3.20
2018-11-28T07:20:22.961Z,3.20
2018-11-28T07:22:48.955Z,3.20
2018-11-28T07:25:14.950Z,3.10
2018-11-28T07:27:45.125Z,3.20
2018-11-28T07:30:06.985Z,3.20
2018-11-28T07:32:32.990Z,3.10
2018-11-28T07:34:58.974Z,3.30
2018-11-28T07:37:24.974Z,3.30
2018-11-28T07:39:50.983Z,3.40
2018-11-28T07:42:17.003Z,3.30
2018-11-28T07:44:43.004Z,3.40
2018-11-28T07:47:08.983Z,3.50
2018-11-28T07:49:34.970Z,3.50
2018-11-28T07:52:00.983Z,3.70
2018-11-28T07:54:27.742Z,3.70
2018-11-28T07:56:53.797Z,3.70
2018-11-28T07:59:19.729Z,3.70
2018-11-28T08:01:45.714Z,3.70
2018-11-28T08:04:11.718Z,3.70
2018-11-28T08:06:37.687Z,3.60
2018-11-28T08:09:03.715Z,3.70
2018-11-28T08:11:29.717Z,3.80
2018-11-28T08:13:55.713Z,3.80
2018-11-28T08:16:21.738Z,3.90
2018-11-28T08:18:47.735Z,3.90
2018-11-28T08:21:13.757Z,4.30
2018-11-28T08:23:39.764Z,4.20
2018-11-28T08:26:05.746Z,4.20
2018-11-28T08:28:31.749Z,4.30
2018-11-28T08:30:57.765Z,4.40
2018-11-28T08:33:24.537Z,4.20
2018-11-28T08:35:50.536Z,4.20
2018-11-28T08:38:16.516Z,3.80
2018-11-28T08:40:42.522Z,3.80
2018-11-28T08:43:08.518Z,3.60
2018-11-28T08:45:34.535Z,3.40
2018-11-28T08:48:00.523Z,3.20
2018-11-28T08:50:26.529Z,3.30
2018-11-28T08:52:52.530Z,3.40
2018-11-28T08:55:18.523Z,3.30
2018-11-28T08:57:44.516Z,3.40
2018-11-28T09:00:10.513Z,3.50
2018-11-28T09:02:36.502Z,4.00
2018-11-28T09:05:02.494Z,3.90
2018-11-28T09:07:28.508Z,4.00
2018-11-28T09:09:54.512Z,4.20
2018-11-28T09:12:20.499Z,4.40
2018-11-28T09:14:46.530Z,4.60
2018-11-28T09:17:15.134Z,4.80
2018-11-28T09:19:38.563Z,5.00
2018-11-28T09:22:04.560Z,5.10
2018-11-28T09:24:30.552Z,5.10
2018-11-28T09:26:56.559Z,5.30
2018-11-28T09:29:22.542Z,5.40
2018-11-28T09:31:48.544Z,5.50
2018-11-28T09:34:14.534Z,5.60
2018-11-28T09:36:40.575Z,5.70
2018-11-28T09:39:06.562Z,5.80
2018-11-28T09:41:32.570Z,5.70
2018-11-28T09:43:59.335Z,5.60
2018-11-28T09:46:25.325Z,5.60
2018-11-28T09:48:51.348Z,5.90
2018-11-28T09:51:17.350Z,6.20
2018-11-28T09:53:43.338Z,6.10
2018-11-28T09:56:09.369Z,5.90
2018-11-28T09:58:36.068Z,6.10
2018-11-28T10:01:02.803Z,6.00
2018-11-28T10:03:29.547Z,5.90
2018-11-28T10:05:55.559Z,5.90
2018-11-28T10:08:21.640Z,6.10
2018-11-28T10:10:47.778Z,6.10
2018-11-28T10:13:13.818Z,6.10
2018-11-28T10:15:39.799Z,6.20
2018-11-28T10:18:05.779Z,6.20
2018-11-28T10:20:31.771Z,6.30
2018-11-28T10:22:57.767Z,6.00
2018-11-28T10:25:23.791Z,6.40
2018-11-28T10:27:49.775Z,5.90
2018-11-28T10:30:15.771Z,6.40
2018-11-28T10:32:41.773Z,6.20
2018-11-28T10:35:07.799Z,6.30
2018-11-28T10:37:33.818Z,6.60
2018-11-28T10:39:59.842Z,6.60
2018-11-28T10:42:25.924Z,6.20
2018-11-28T10:44:52.001Z,6.40
2018-11-28T10:47:18.040Z,6.50
2018-11-28T10:49:44.048Z,6.30
2018-11-28T10:52:10.064Z,6.60
2018-11-28T10:54:36.082Z,6.60
2018-11-28T10:57:02.108Z,6.60
2018-11-28T10:59:35.123Z,6.60
2018-11-28T11:02:01.147Z,6.40
2018-11-28T11:04:27.173Z,6.60
2018-11-28T11:07:08.141Z,6.80
2018-11-28T11:09:49.902Z,6.80
2018-11-28T11:12:15.926Z,6.30
2018-11-28T11:14:41.939Z,6.60
2018-11-28T11:17:07.939Z,6.60
2018-11-28T11:19:33.947Z,6.80
2018-11-28T11:21:59.967Z,6.80
2018-11-28T11:24:26.718Z,6.60
2018-11-28T11:26:52.758Z,6.70
2018-11-28T11:29:18.756Z,6.80
2018-11-28T11:31:44.789Z,6.90
2018-11-28T11:34:10.800Z,7.10
2018-11-28T11:36:36.839Z,7.10
2018-11-28T11:39:02.833Z,7.10
2018-11-28T11:41:28.809Z,6.80
2018-11-28T11:43:55.567Z,6.90
2018-11-28T11:46:21.619Z,6.90
2018-11-28T11:48:47.651Z,7.30
2018-11-28T11:51:13.727Z,7.10
2018-11-28T11:53:39.758Z,6.60
2018-11-28T11:56:05.782Z,7.40
2018-11-28T11:58:31.826Z,7.20
2018-11-28T12:00:57.861Z,7.10
2018-11-28T12:03:23.875Z,7.30
2018-11-28T12:05:49.909Z,7.40
2018-11-28T12:08:15.995Z,7.10
2018-11-28T12:10:42.026Z,7.00
2018-11-28T12:13:08.230Z,7.10
2018-11-28T12:15:34.091Z,7.30
2018-11-28T12:18:00.119Z,7.30
2018-11-28T12:20:33.098Z,7.40
2018-11-28T12:22:59.150Z,7.50
2018-11-28T12:25:25.150Z,7.40
2018-11-28T12:27:51.174Z,7.20
2018-11-28T12:30:17.275Z,7.30
2018-11-28T12:32:43.458Z,7.50
2018-11-28T12:35:09.475Z,7.50
2018-11-28T12:37:35.544Z,7.10
2018-11-28T12:40:01.588Z,7.00
2018-11-28T12:42:27.728Z,7.40
2018-11-28T12:44:53.753Z,7.10
2018-11-28T12:47:19.823Z,7.10
2018-11-28T12:49:45.873Z,7.20
2018-11-28T12:52:11.877Z,7.10
2018-11-28T12:54:37.914Z,7.10
2018-11-28T12:57:04.651Z,7.10
2018-11-28T12:59:30.753Z,7.10
2018-11-28T13:01:56.792Z,7.30
2018-11-28T13:04:22.836Z,7.50
2018-11-28T13:06:48.886Z,7.10
2018-11-28T13:09:14.961Z,7.10
2018-11-28T13:11:41.000Z,7.30
2018-11-28T13:14:08.176Z,7.30
2018-11-28T13:16:34.525Z,7.30
2018-11-28T13:19:00.624Z,7.40
2018-11-28T13:21:26.674Z,7.40
2018-11-28T13:23:53.029Z,7.30
2018-11-28T13:26:19.126Z,7.40
2018-11-28T13:28:45.217Z,7.30
2018-11-28T13:31:12.041Z,7.50
2018-11-28T13:33:39.127Z,7.60
2018-11-28T13:36:05.357Z,7.60
2018-11-28T13:38:31.388Z,7.60
2018-11-28T13:40:57.477Z,7.80
2018-11-28T13:43:23.495Z,7.70
2018-11-28T13:45:49.510Z,7.60
2018-11-28T13:48:15.503Z,7.60
2018-11-28T13:50:41.525Z,7.70
2018-11-28T13:53:07.588Z,7.50
2018-11-28T13:55:38.445Z,7.50
2018-11-28T13:57:59.925Z,7.70
2018-11-28T14:00:25.944Z,7.50
2018-11-28T14:02:51.935Z,7.50
2018-11-28T14:05:18.191Z,7.20
2018-11-28T14:07:44.366Z,7.30
2018-11-28T14:10:10.689Z,7.40
2018-11-28T14:12:36.740Z,7.50
2018-11-28T14:15:02.855Z,7.60
2018-11-28T14:17:28.889Z,7.60
2018-11-28T14:19:54.989Z,7.60
2018-11-28T14:22:22.244Z,7.70
2018-11-28T14:24:49.506Z,7.70
2018-11-28T14:27:15.875Z,7.70
2018-11-28T14:29:41.891Z,7.80
2018-11-28T14:32:08.716Z,7.50
2018-11-28T14:34:34.783Z,7.50
2018-11-28T14:37:00.841Z,7.40
2018-11-28T14:39:27.590Z,7.40
2018-11-28T14:41:53.637Z,7.40
2018-11-28T14:44:19.628Z,7.50
2018-11-28T14:46:45.665Z,7.60
2018-11-28T14:49:11.723Z,7.60
2018-11-28T14:51:37.751Z,7.50
2018-11-28T14:54:03.801Z,7.50
2018-11-28T14:56:29.806Z,7.40
2018-11-28T14:58:55.811Z,7.30
2018-11-28T15:01:21.846Z,7.30
2018-11-28T15:03:47.845Z,7.40
2018-11-28T15:06:13.901Z,7.30
2018-11-28T15:08:39.957Z,7.10
2018-11-28T15:11:06.726Z,7.10
2018-11-28T15:13:32.745Z,7.10
2018-11-28T15:15:58.810Z,7.20
2018-11-28T15:18:24.836Z,7.20
2018-11-28T15:20:50.842Z,7.20
2018-11-28T15:23:16.839Z,7.40
2018-11-28T15:25:42.914Z,7.40
2018-11-28T15:28:18.942Z,7.30
2018-11-28T15:30:44.955Z,7.30
2018-11-28T15:33:10.975Z,7.20
2018-11-28T15:35:37.007Z,7.20
2018-11-28T15:38:03.039Z,7.10
2018-11-28T15:40:29.051Z,7.00
2018-11-28T15:42:55.081Z,7.00
2018-11-28T15:45:21.799Z,6.90
2018-11-28T15:47:47.815Z,6.80
2018-11-28T15:50:13.808Z,6.90
2018-11-28T15:52:39.851Z,6.90
2018-11-28T15:55:05.936Z,6.80
2018-11-28T15:57:31.992Z,6.80
2018-11-28T15:59:58.017Z,6.80
2018-11-28T16:02:24.137Z,6.80
2018-11-28T16:04:50.146Z,6.70
2018-11-28T16:07:16.217Z,6.70
2018-11-28T16:09:42.238Z,6.60
2018-11-28T16:12:08.311Z,6.80
2018-11-28T16:14:34.367Z,6.60
2018-11-28T16:17:00.382Z,6.80
2018-11-28T16:19:26.369Z,6.80
2018-11-28T16:21:52.390Z,6.50
2018-11-28T16:24:18.367Z,6.80
2018-11-28T16:26:44.387Z,6.80
2018-11-28T16:29:10.400Z,6.90
2018-11-28T16:31:36.361Z,6.60
2018-11-28T16:34:02.346Z,6.80
2018-11-28T16:36:28.339Z,6.80
2018-11-28T16:38:54.373Z,6.70
2018-11-28T16:41:20.401Z,6.70
2018-11-28T16:43:46.424Z,6.50
2018-11-28T16:46:12.439Z,6.50
2018-11-28T16:48:38.442Z,6.50
2018-11-28T16:51:04.529Z,6.50
2018-11-28T16:53:30.621Z,6.50
2018-11-28T16:55:56.635Z,6.60
2018-11-28T16:58:22.656Z,6.60
2018-11-28T17:00:48.666Z,6.60
2018-11-28T17:03:14.666Z,6.70
2018-11-28T17:05:40.672Z,6.80
2018-11-28T17:08:06.646Z,6.70
2018-11-28T17:10:32.655Z,6.60
2018-11-28T17:12:58.685Z,6.70
2018-11-28T17:15:24.702Z,6.80
2018-11-28T17:17:51.450Z,6.80
2018-11-28T17:20:17.479Z,6.80
2018-11-28T17:22:43.452Z,6.90
2018-11-28T17:25:09.441Z,6.80
2018-11-28T17:27:35.450Z,6.80
2018-11-28T17:30:01.465Z,6.70
2018-11-28T17:32:27.532Z,6.80
2018-11-28T17:34:53.548Z,6.60
2018-11-28T17:37:19.542Z,6.60
2018-11-28T17:39:45.590Z,6.40
2018-11-28T17:42:11.607Z,6.30
2018-11-28T17:44:37.597Z,6.40
2018-11-28T17:47:03.631Z,6.40
2018-11-28T17:49:29.619Z,6.40
2018-11-28T17:51:55.603Z,6.20
2018-11-28T17:54:21.586Z,6.40
2018-11-28T17:56:47.585Z,6.50
2018-11-28T17:59:13.573Z,6.60
2018-11-28T18:01:39.585Z,6.70
2018-11-28T18:04:05.590Z,6.70
2018-11-28T18:06:31.596Z,6.70
2018-11-28T18:08:57.594Z,6.70
2018-11-28T18:11:23.671Z,6.70
2018-11-28T18:13:49.689Z,6.70
2018-11-28T18:16:15.737Z,6.60
2018-11-28T18:18:41.756Z,6.70
2018-11-28T18:21:07.794Z,6.40
2018-11-28T18:23:33.771Z,6.60
2018-11-28T18:25:59.886Z,6.60
2018-11-28T18:28:25.878Z,6.50
2018-11-28T18:30:51.882Z,6.60
2018-11-28T18:33:17.895Z,6.70
2018-11-28T18:35:43.898Z,6.70
2018-11-28T18:38:10.661Z,6.60
2018-11-28T18:40:36.655Z,6.60
2018-11-28T18:43:02.652Z,6.70
2018-11-28T18:45:28.618Z,6.80
2018-11-28T18:47:54.626Z,6.70
2018-11-28T18:50:20.650Z,6.80
2018-11-28T18:52:46.679Z,6.70
2018-11-28T18:55:16.587Z,6.70
2018-11-28T18:57:38.715Z,6.80
2018-11-28T19:00:05.610Z,6.60
2018-11-28T19:02:31.600Z,6.60
2018-11-28T19:04:57.642Z,6.60
2018-11-28T19:07:23.746Z,6.60
2018-11-28T19:09:49.764Z,6.60
2018-11-28T19:12:16.510Z,6.70
2018-11-28T19:14:43.331Z,6.70
2018-11-28T19:17:09.283Z,6.70
2018-11-28T19:19:35.303Z,6.60
2018-11-28T19:22:01.415Z,6.80
2018-11-28T19:24:28.218Z,6.70
2018-11-28T19:26:54.334Z,6.70
2018-11-28T19:29:20.357Z,6.60
2018-11-28T19:31:46.351Z,6.60
2018-11-28T19:34:18.034Z,6.50
2018-11-28T19:36:38.540Z,6.70
2018-11-28T19:39:04.706Z,6.70
2018-11-28T19:41:30.767Z,6.60
2018-11-28T19:43:56.911Z,6.60
2018-11-28T19:46:22.959Z,6.50
2018-11-28T19:48:49.189Z,6.60
2018-11-28T19:51:15.390Z,6.50
2018-11-28T19:53:41.416Z,6.50
2018-11-28T19:56:07.446Z,6.50
2018-11-28T19:58:33.576Z,6.50
2018-11-28T20:00:59.754Z,6.50
2018-11-28T20:03:25.761Z,6.60
2018-11-28T20:05:51.755Z,6.50
2018-11-28T20:08:17.806Z,6.30
2018-11-28T20:10:43.815Z,6.40
2018-11-28T20:13:09.827Z,6.50
2018-11-28T20:15:35.846Z,6.40
2018-11-28T20:18:01.874Z,6.40
2018-11-28T20:20:28.137Z,6.50
2018-11-28T20:22:54.328Z,6.50
2018-11-28T20:25:20.463Z,6.40
2018-11-28T20:27:46.649Z,6.60
2018-11-28T20:30:12.747Z,6.40
2018-11-28T20:32:38.930Z,6.10
2018-11-28T20:35:05.029Z,6.30
2018-11-28T20:37:31.012Z,6.20
2018-11-28T20:39:57.021Z,6.20
2018-11-28T20:42:23.040Z,6.20
2018-11-28T20:44:49.154Z,6.20
2018-11-28T20:47:15.171Z,5.90
2018-11-28T20:49:41.267Z,6.00
2018-11-28T20:52:07.258Z,5.80
2018-11-28T20:54:33.285Z,6.10
2018-11-28T20:56:59.511Z,6.10
2018-11-28T20:59:25.627Z,6.20
2018-11-28T21:01:51.775Z,6.10
2018-11-28T21:04:17.892Z,5.90
2018-11-28T21:06:44.069Z,5.80
2018-11-28T21:09:10.159Z,5.90
2018-11-28T21:11:37.001Z,5.80
2018-11-28T21:14:03.122Z,5.90
2018-11-28T21:16:29.130Z,5.50
2018-11-28T21:18:55.154Z,5.70
2018-11-28T21:21:27.299Z,5.50
2018-11-28T21:23:48.090Z,5.40
2018-11-28T21:26:14.077Z,5.40
2018-11-28T21:28:40.833Z,5.30
2018-11-28T21:31:06.887Z,5.30
2018-11-28T21:33:32.913Z,5.30
2018-11-28T21:35:58.957Z,5.40
2018-11-28T21:38:25.762Z,5.40
2018-11-28T21:40:52.319Z,5.40
2018-11-28T21:43:18.373Z,5.30
2018-11-28T21:45:45.126Z,5.40
2018-11-28T21:48:11.205Z,5.40
2018-11-28T21:50:37.237Z,5.30
2018-11-28T21:53:04.010Z,5.40
2018-11-28T21:55:30.800Z,5.30
2018-11-28T21:57:56.842Z,5.30
2018-11-28T22:00:22.873Z,5.00
2018-11-28T22:02:48.874Z,5.10
2018-11-28T22:05:14.938Z,5.10
2018-11-28T22:07:40.953Z,5.00
2018-11-28T22:10:07.692Z,4.80
2018-11-28T22:12:33.701Z,4.80
2018-11-28T22:14:59.704Z,4.80
2018-11-28T22:17:25.735Z,4.60
2018-11-28T22:19:51.745Z,4.70
2018-11-28T22:22:17.832Z,4.60
2018-11-28T22:24:43.944Z,4.70
2018-11-28T22:27:10.712Z,4.60
2018-11-28T22:29:36.701Z,4.60
2018-11-28T22:32:02.710Z,4.50
2018-11-28T22:34:29.476Z,4.70
2018-11-28T22:36:55.579Z,4.60
2018-11-28T22:39:22.358Z,4.80
2018-11-28T22:41:48.375Z,4.80
2018-11-28T22:44:14.428Z,4.60
2018-11-28T22:46:40.439Z,4.80
2018-11-28T22:49:06.489Z,4.70
2018-11-28T22:51:32.526Z,5.00
2018-11-28T22:53:58.548Z,5.00
2018-11-28T22:56:24.563Z,4.90
2018-11-28T22:58:50.582Z,4.90
2018-11-28T23:01:16.606Z,4.90
2018-11-28T23:03:42.633Z,4.80
2018-11-28T23:06:08.639Z,4.80
2018-11-28T23:08:34.687Z,4.90
2018-11-28T23:11:00.751Z,4.60
2018-11-28T23:13:27.530Z,4.80
2018-11-28T23:15:53.573Z,4.80
2018-11-28T23:18:19.614Z,4.80
2018-11-28T23:20:45.646Z,4.80
2018-11-28T23:23:11.677Z,4.80
2018-11-28T23:25:37.698Z,4.70
2018-11-28T23:28:03.710Z,4.80
2018-11-28T23:30:29.768Z,4.60
2018-11-28T23:32:56.527Z,4.20
2018-11-28T23:35:22.587Z,4.20
2018-11-28T23:37:48.594Z,4.20
2018-11-28T23:40:14.592Z,4.40
2018-11-28T23:42:41.368Z,4.30
2018-11-28T23:45:07.384Z,4.30
2018-11-28T23:47:33.372Z,4.60
2018-11-28T23:50:00.115Z,4.30
2018-11-28T23:52:26.145Z,4.30
2018-11-28T23:54:52.277Z,4.20
2018-11-28T23:57:18.300Z,4.50
2018-11-28T23:59:44.317Z,4.30
